Time;durP1;ratioP1;P1;durP2;ratioP2;P2;SDS_P1;SDS_P2;PMS_P1;PMS_P2;Temp;Humidity;BMP_temperature;BMP_pressure;BME280_temperature;BME280_humidity;BME280_pressure;Samples;Min_cycle;Max_cycle;Signal;HPM_P1;HPM_P2
2023/12/06 00:01:51;;;;;;;20.08;13.95;;;5.60;99.90;;;;;;5139005;27;20016;-78
2023/12/06 00:04:16;;;;;;;19.80;12.90;;;5.60;99.90;;;;;;5139154;27;20432;-78
2023/12/06 00:06:42;;;;;;;16.55;10.48;;;5.60;99.90;;;;;;5138655;27;20023;-78
2023/12/06 00:09:08;;;;;;;13.30;7.38;;;5.60;99.90;;;;;;5138874;27;20072;-78
2023/12/06 00:11:33;;;;;;;15.45;7.93;;;5.60;99.90;;;;;;5116860;28;20020;-78
2023/12/06 00:13:59;;;;;;;16.17;8.45;;;5.60;99.90;;;;;;5107744;28;20028;-78
2023/12/06 00:16:24;;;;;;;11.73;8.43;;;5.60;99.90;;;;;;5136358;27;20027;-77
2023/12/06 00:18:50;;;;;;;14.70;7.30;;;5.70;99.90;;;;;;5135348;27;20034;-77
2023/12/06 00:21:16;;;;;;;12.07;7.95;;;5.70;99.90;;;;;;5136044;27;20118;-77
2023/12/06 00:23:41;;;;;;;10.55;8.13;;;5.70;99.90;;;;;;5120354;27;20065;-77
2023/12/06 00:26:07;;;;;;;13.25;8.40;;;5.70;99.90;;;;;;5119504;27;20072;-77
2023/12/06 00:28:33;;;;;;;11.63;7.43;;;5.70;99.90;;;;;;5138457;27;20168;-77
2023/12/06 00:30:58;;;;;;;11.43;7.65;;;5.70;99.90;;;;;;5138144;27;20025;-77
2023/12/06 00:33:24;;;;;;;12.40;8.68;;;5.70;99.90;;;;;;5119984;27;20053;-77
2023/12/06 00:35:50;;;;;;;12.77;8.43;;;5.70;99.90;;;;;;5119614;27;20027;-77
2023/12/06 00:38:16;;;;;;;13.07;7.28;;;5.70;99.90;;;;;;5138346;27;20398;-77
2023/12/06 00:40:42;;;;;;;10.82;7.38;;;5.70;99.90;;;;;;5119718;27;20106;-77
2023/12/06 00:43:07;;;;;;;13.82;6.85;;;5.80;99.90;;;;;;5138378;27;20042;-77
2023/12/06 00:45:33;;;;;;;9.80;7.30;;;5.80;99.90;;;;;;5137772;27;20026;-77
2023/12/06 00:47:59;;;;;;;11.85;7.00;;;5.80;99.90;;;;;;5138386;27;20023;-77
2023/12/06 00:50:25;;;;;;;11.80;7.53;;;5.80;99.90;;;;;;5137977;27;20729;-77
2023/12/06 00:52:51;;;;;;;11.95;7.57;;;5.80;99.90;;;;;;5137889;27;20051;-77
2023/12/06 00:55:16;;;;;;;14.50;8.35;;;5.70;99.90;;;;;;5137860;27;20027;-77
2023/12/06 00:57:42;;;;;;;15.25;8.18;;;5.70;99.90;;;;;;5138045;27;20023;-78
2023/12/06 01:00:08;;;;;;;15.73;8.20;;;5.70;99.90;;;;;;5137114;27;20011;-77
2023/12/06 01:02:34;;;;;;;11.57;7.70;;;5.70;99.90;;;;;;5119462;27;20386;-78
2023/12/06 01:05:00;;;;;;;15.05;7.97;;;5.70;99.90;;;;;;5137819;27;20051;-77
2023/12/06 01:07:26;;;;;;;10.00;7.65;;;5.70;99.90;;;;;;5119391;27;20027;-77
2023/12/06 01:09:52;;;;;;;10.00;6.25;;;5.70;99.90;;;;;;5137461;27;20098;-77
2023/12/06 01:12:18;;;;;;;9.88;6.72;;;5.70;99.90;;;;;;5137771;27;20023;-77
2023/12/06 01:14:44;;;;;;;7.88;6.63;;;5.70;99.90;;;;;;5137314;27;20019;-77
2023/12/06 01:17:09;;;;;;;10.63;7.22;;;5.70;99.90;;;;;;5137665;27;20027;-77
2023/12/06 01:19:35;;;;;;;10.75;6.50;;;5.60;99.90;;;;;;5131519;27;20011;-77
2023/12/06 01:22:00;;;;;;;8.55;6.80;;;5.60;99.90;;;;;;5137460;27;20038;-77
2023/12/06 01:24:26;;;;;;;15.63;7.30;;;5.60;99.90;;;;;;5137465;27;20019;-77
2023/12/06 01:26:52;;;;;;;12.25;6.85;;;5.60;99.90;;;;;;5137524;27;20059;-77
2023/12/06 01:29:17;;;;;;;9.65;7.28;;;5.50;99.90;;;;;;5136976;27;20098;-77
2023/12/06 01:31:43;;;;;;;12.27;8.05;;;5.50;99.90;;;;;;5137570;27;20034;-77
2023/12/06 01:34:08;;;;;;;9.35;6.57;;;5.50;99.90;;;;;;5138116;27;20051;-77
2023/12/06 01:36:35;;;;;;;10.30;8.13;;;5.40;99.90;;;;;;5119839;27;20080;-77
2023/12/06 01:39:01;;;;;;;16.45;6.97;;;5.40;99.90;;;;;;5119473;27;20022;-77
2023/12/06 01:41:27;;;;;;;15.35;7.03;;;5.40;99.90;;;;;;5137164;27;20023;-77
2023/12/06 01:43:52;;;;;;;14.23;7.57;;;5.40;99.90;;;;;;5118381;27;20498;-77
2023/12/06 01:46:19;;;;;;;11.45;6.80;;;5.40;99.90;;;;;;5137424;27;20027;-77
2023/12/06 01:48:46;;;;;;;10.18;6.57;;;5.40;99.90;;;;;;5118404;27;20015;-78
2023/12/06 01:51:13;;;;;;;9.73;6.28;;;5.40;99.90;;;;;;5137084;27;20027;-77
2023/12/06 01:53:39;;;;;;;8.95;6.50;;;5.40;99.90;;;;;;5136347;27;20395;-77
2023/12/06 01:56:06;;;;;;;7.13;6.07;;;5.30;99.90;;;;;;5136798;27;20023;-77
2023/12/06 01:58:34;;;;;;;7.38;6.10;;;5.30;99.90;;;;;;5117894;27;20518;-77
2023/12/06 02:00:59;;;;;;;11.38;6.72;;;5.30;99.90;;;;;;5118257;27;20037;-77
2023/12/06 02:03:25;;;;;;;10.73;6.50;;;5.20;99.90;;;;;;5114862;28;20495;-78
2023/12/06 02:05:52;;;;;;;12.25;7.60;;;5.20;99.90;;;;;;5108445;27;20023;-77
2023/12/06 02:08:18;;;;;;;10.38;6.78;;;5.10;99.90;;;;;;5135266;27;20019;-77
2023/12/06 02:10:43;;;;;;;9.05;6.22;;;5.10;99.90;;;;;;5117115;27;20562;-77
2023/12/06 02:13:09;;;;;;;11.65;6.65;;;5.00;99.90;;;;;;5118084;27;20030;-77
2023/12/06 02:15:35;;;;;;;12.48;7.28;;;4.90;99.90;;;;;;5136443;27;20027;-77
2023/12/06 02:18:05;;;;;;;12.80;7.35;;;4.90;99.90;;;;;;5136645;27;20082;-77
2023/12/06 02:20:31;;;;;;;9.40;7.70;;;4.90;99.90;;;;;;5136625;27;20554;-77
2023/12/06 02:22:58;;;;;;;11.57;8.10;;;4.90;99.90;;;;;;5114605;28;20019;-77
2023/12/06 02:25:24;;;;;;;15.90;9.40;;;4.80;99.90;;;;;;5136414;27;20068;-77
2023/12/06 02:27:50;;;;;;;10.20;8.50;;;4.80;99.90;;;;;;5114593;28;20027;-77
2023/12/06 02:30:15;;;;;;;19.77;7.07;;;4.80;99.90;;;;;;5114125;28;20436;-77
2023/12/06 02:32:41;;;;;;;10.77;7.30;;;4.70;99.90;;;;;;5114366;28;20491;-77
2023/12/06 02:35:37;;;;;;;11.38;7.25;;;4.70;99.90;;;;;;5132404;28;20422;-77
2023/12/06 02:38:04;;;;;;;10.80;6.78;;;4.60;99.90;;;;;;5128352;28;20043;-78
2023/12/06 02:40:31;;;;;;;11.65;6.57;;;4.70;99.90;;;;;;5117904;28;20024;-77
2023/12/06 02:42:58;;;;;;;12.38;6.80;;;4.60;99.90;;;;;;5114408;28;20020;-77
2023/12/06 02:45:24;;;;;;;16.50;6.97;;;4.60;99.90;;;;;;5112273;28;20043;-77
2023/12/06 02:47:50;;;;;;;7.38;6.68;;;4.60;99.90;;;;;;5136293;28;20034;-77
2023/12/06 02:50:16;;;;;;;12.45;7.32;;;4.60;99.90;;;;;;5135884;28;20023;-77
2023/12/06 02:52:42;;;;;;;9.35;8.13;;;4.60;99.90;;;;;;5114096;28;20038;-77
2023/12/06 02:55:07;;;;;;;14.55;8.77;;;4.60;99.90;;;;;;5113232;28;20483;-77
2023/12/06 02:57:33;;;;;;;17.92;8.75;;;4.60;99.90;;;;;;5114290;28;20019;-78
2023/12/06 02:59:59;;;;;;;12.18;7.65;;;4.50;99.90;;;;;;5131566;28;20042;-77
2023/12/06 03:02:24;;;;;;;15.52;8.20;;;4.60;99.90;;;;;;5135916;28;20023;-78
2023/12/06 03:04:50;;;;;;;30.63;12.60;;;4.50;99.90;;;;;;5135156;28;20583;-77
2023/12/06 03:07:15;;;;;;;17.45;10.85;;;4.50;99.90;;;;;;5135312;28;20027;-78
2023/12/06 03:09:41;;;;;;;33.70;16.85;;;4.50;99.90;;;;;;5117495;28;20031;-77
2023/12/06 03:12:07;;;;;;;12.45;6.70;;;4.50;99.90;;;;;;5113962;28;20396;-77
2023/12/06 03:14:33;;;;;;;14.18;9.20;;;4.50;99.90;;;;;;5134649;28;20057;-77
2023/12/06 03:16:58;;;;;;;25.02;11.93;;;4.50;99.90;;;;;;5117236;28;20031;-77
2023/12/06 03:19:24;;;;;;;15.10;8.70;;;4.50;99.90;;;;;;5129647;28;20475;-78
2023/12/06 03:21:50;;;;;;;12.23;7.88;;;4.40;99.90;;;;;;5118278;27;20091;-78
2023/12/06 03:24:16;;;;;;;12.43;9.85;;;4.40;99.90;;;;;;5119888;27;20053;-77
2023/12/06 03:26:41;;;;;;;15.52;9.35;;;4.40;99.90;;;;;;5139691;27;20453;-77
2023/12/06 03:29:07;;;;;;;12.95;8.23;;;4.50;99.90;;;;;;5139442;27;20027;-77
2023/12/06 03:31:33;;;;;;;19.92;10.55;;;4.40;99.90;;;;;;5120975;27;20475;-77
2023/12/06 03:33:58;;;;;;;9.80;8.07;;;4.40;99.90;;;;;;5139425;27;20031;-77
2023/12/06 03:36:24;;;;;;;12.38;9.48;;;4.40;99.90;;;;;;5120734;27;20138;-77
2023/12/06 03:38:49;;;;;;;12.48;8.18;;;4.40;99.90;;;;;;5139398;27;20027;-78
2023/12/06 03:41:15;;;;;;;20.38;10.30;;;4.40;99.90;;;;;;5139431;27;20550;-77
2023/12/06 03:43:41;;;;;;;19.65;9.25;;;4.40;99.90;;;;;;5139297;27;20031;-77
2023/12/06 03:46:09;;;;;;;13.20;8.15;;;4.40;99.90;;;;;;5139203;27;20012;-78
2023/12/06 03:48:35;;;;;;;20.70;11.00;;;4.40;99.90;;;;;;5139234;27;20031;-78
2023/12/06 03:51:00;;;;;;;36.83;14.32;;;4.40;99.90;;;;;;5139019;27;20102;-76
2023/12/06 03:53:26;;;;;;;69.35;31.13;;;4.30;99.90;;;;;;5119489;27;20120;-77
2023/12/06 03:55:52;;;;;;;223.48;112.88;;;4.30;99.90;;;;;;5120453;27;20027;-78
2023/12/06 03:58:18;;;;;;;347.10;143.77;;;4.30;99.90;;;;;;5139043;27;20023;-78
2023/12/06 04:00:43;;;;;;;364.95;154.10;;;4.30;99.90;;;;;;5138795;27;20027;-78
2023/12/06 04:03:10;;;;;;;131.77;65.88;;;4.20;99.90;;;;;;5120463;27;20512;-78
2023/12/06 04:05:35;;;;;;;126.40;58.20;;;4.20;99.90;;;;;;5138080;27;20126;-77
2023/12/06 04:08:02;;;;;;;44.63;25.92;;;4.20;99.90;;;;;;5138159;27;20069;-77
2023/12/06 04:10:27;;;;;;;27.73;15.20;;;4.10;99.90;;;;;;5120087;27;20027;-77
2023/12/06 04:12:53;;;;;;;23.98;14.88;;;4.10;99.90;;;;;;5120134;27;20034;-77
2023/12/06 04:15:19;;;;;;;30.02;17.52;;;4.10;99.90;;;;;;5138622;27;20099;-77
2023/12/06 04:17:44;;;;;;;24.50;16.60;;;4.10;99.90;;;;;;5120064;27;20516;-77
2023/12/06 04:20:10;;;;;;;22.33;15.13;;;4.20;99.90;;;;;;5131715;27;20026;-77
2023/12/06 04:22:36;;;;;;;33.67;22.10;;;4.20;99.90;;;;;;5119971;27;20044;-77
2023/12/06 04:25:02;;;;;;;72.93;47.47;;;4.20;99.90;;;;;;5138562;27;20471;-77
2023/12/06 04:27:28;;;;;;;95.82;61.97;;;4.30;99.90;;;;;;5138499;27;20023;-77
2023/12/06 04:29:53;;;;;;;100.88;66.57;;;4.30;99.90;;;;;;5137367;27;20035;-77
2023/12/06 04:32:19;;;;;;;56.67;36.00;;;4.40;99.90;;;;;;5127166;27;20024;-77
2023/12/06 04:34:53;;;;;;;34.08;23.05;;;4.40;99.90;;;;;;5129978;27;20035;-77
2023/12/06 04:37:19;;;;;;;75.38;47.83;;;4.40;99.90;;;;;;5136842;27;20034;-77
2023/12/06 04:39:44;;;;;;;54.25;34.03;;;4.50;99.90;;;;;;5115965;27;20028;-77
2023/12/06 04:42:10;;;;;;;12.65;10.80;;;4.60;99.90;;;;;;5138365;27;20019;-77
2023/12/06 04:44:36;;;;;;;112.65;63.28;;;4.60;99.90;;;;;;5137945;27;20031;-77
2023/12/06 04:47:02;;;;;;;15.07;10.80;;;4.60;99.90;;;;;;5138019;27;20140;-77
2023/12/06 04:49:28;;;;;;;13.32;9.52;;;4.70;99.90;;;;;;5138261;27;20027;-77
2023/12/06 04:51:53;;;;;;;22.27;14.05;;;4.70;99.90;;;;;;5119565;27;20064;-77
2023/12/06 04:54:19;;;;;;;16.70;12.02;;;4.70;99.90;;;;;;5119498;27;20047;-76
2023/12/06 04:56:45;;;;;;;13.55;9.82;;;4.80;99.90;;;;;;5119199;27;20030;-76
2023/12/06 04:59:10;;;;;;;116.22;70.43;;;4.80;99.90;;;;;;5137898;27;20019;-76
2023/12/06 05:01:36;;;;;;;118.25;75.22;;;4.80;99.90;;;;;;5137704;27;20030;-76
2023/12/06 05:04:03;;;;;;;45.13;28.70;;;4.80;99.90;;;;;;5119008;27;20487;-77
2023/12/06 05:06:28;;;;;;;21.92;12.32;;;4.90;99.90;;;;;;5137650;27;20076;-78
2023/12/06 05:08:54;;;;;;;18.23;11.02;;;4.90;99.90;;;;;;5119498;27;20064;-77
2023/12/06 05:11:20;;;;;;;13.13;10.20;;;4.90;99.90;;;;;;5137504;27;20034;-78
2023/12/06 05:13:45;;;;;;;15.25;11.70;;;5.00;99.90;;;;;;5137403;27;20034;-77
2023/12/06 05:16:11;;;;;;;12.20;10.75;;;5.00;99.90;;;;;;5137446;27;20027;-78
2023/12/06 05:18:36;;;;;;;17.40;11.38;;;5.10;99.90;;;;;;5135872;27;20034;-77
2023/12/06 05:21:02;;;;;;;17.60;11.27;;;5.10;99.90;;;;;;5132054;27;20525;-78
2023/12/06 05:23:28;;;;;;;16.42;11.85;;;5.20;99.90;;;;;;5137297;27;20103;-77
2023/12/06 05:25:53;;;;;;;14.80;10.32;;;5.20;99.90;;;;;;5137381;27;20019;-77
2023/12/06 05:28:19;;;;;;;18.75;11.45;;;5.20;99.90;;;;;;5118483;27;20019;-77
2023/12/06 05:30:44;;;;;;;13.38;11.52;;;5.30;99.90;;;;;;5137433;27;20501;-78
2023/12/06 05:33:10;;;;;;;19.67;11.73;;;5.30;99.90;;;;;;5118701;27;20148;-77
2023/12/06 05:35:37;;;;;;;21.95;13.85;;;5.30;99.90;;;;;;5137214;27;20023;-77
2023/12/06 05:38:03;;;;;;;22.15;14.65;;;5.30;99.90;;;;;;5118341;27;20038;-78
2023/12/06 05:40:28;;;;;;;23.65;15.23;;;5.30;99.90;;;;;;5137224;27;20016;-77
2023/12/06 05:42:54;;;;;;;20.13;13.73;;;5.30;99.90;;;;;;5118409;27;20057;-77
2023/12/06 05:45:19;;;;;;;19.80;14.00;;;5.40;99.90;;;;;;5136754;27;20471;-77
2023/12/06 05:47:45;;;;;;;17.73;14.20;;;5.40;99.90;;;;;;5117329;27;20028;-78
2023/12/06 05:50:12;;;;;;;18.17;14.05;;;5.40;99.90;;;;;;5137063;27;20031;-77
2023/12/06 05:52:38;;;;;;;20.83;15.18;;;5.40;99.90;;;;;;5136855;27;20475;-76
2023/12/06 05:55:05;;;;;;;23.02;13.65;;;5.40;99.90;;;;;;5136793;27;20050;-77
2023/12/06 05:57:32;;;;;;;20.50;14.52;;;5.50;99.90;;;;;;5118189;27;20047;-77
2023/12/06 05:59:58;;;;;;;34.92;18.48;;;5.50;99.90;;;;;;5136578;27;20452;-77
2023/12/06 06:02:24;;;;;;;28.30;16.48;;;5.50;99.90;;;;;;5118018;27;20043;-78
2023/12/06 06:04:50;;;;;;;22.60;15.35;;;5.50;99.90;;;;;;5136812;27;20567;-77
2023/12/06 06:07:16;;;;;;;30.17;16.05;;;5.60;99.90;;;;;;5136547;27;20436;-78
2023/12/06 06:09:42;;;;;;;31.13;17.83;;;5.60;99.90;;;;;;5136630;27;20023;-77
2023/12/06 06:12:08;;;;;;;25.70;15.43;;;5.60;99.90;;;;;;5136298;27;20506;-77
2023/12/06 06:14:34;;;;;;;29.23;15.48;;;5.70;99.90;;;;;;5117868;27;20562;-77
2023/12/06 06:17:00;;;;;;;33.92;17.80;;;5.70;99.90;;;;;;5118026;27;20031;-78
2023/12/06 06:19:25;;;;;;;36.53;17.80;;;5.70;99.90;;;;;;5110705;28;20049;-77
2023/12/06 06:21:51;;;;;;;36.00;18.25;;;5.70;99.90;;;;;;5117749;27;20084;-77
2023/12/06 06:24:17;;;;;;;32.22;17.48;;;5.70;99.90;;;;;;5136408;27;20105;-77
2023/12/06 06:26:42;;;;;;;35.63;18.33;;;5.70;99.90;;;;;;5111338;28;20039;-77
2023/12/06 06:29:08;;;;;;;34.58;15.85;;;5.70;99.90;;;;;;5130386;27;20477;-77
2023/12/06 06:31:34;;;;;;;30.73;16.65;;;5.60;99.90;;;;;;5117549;28;20023;-77
2023/12/06 06:34:02;;;;;;;35.25;16.40;;;5.70;99.90;;;;;;5136293;28;20156;-77
2023/12/06 06:36:28;;;;;;;31.77;16.65;;;5.70;99.90;;;;;;5105281;28;20118;-77
2023/12/06 06:38:55;;;;;;;30.25;15.73;;;5.70;99.90;;;;;;5117631;28;20015;-77
2023/12/06 06:41:21;;;;;;;28.42;16.55;;;5.70;99.90;;;;;;5136291;28;20031;-77
2023/12/06 06:43:47;;;;;;;32.38;15.77;;;5.70;99.90;;;;;;5136022;28;20011;-78
2023/12/06 06:46:13;;;;;;;30.00;15.73;;;5.70;99.90;;;;;;5117755;28;20149;-77
2023/12/06 06:48:39;;;;;;;29.48;15.73;;;5.70;99.90;;;;;;5116391;28;20434;-77
2023/12/06 06:51:05;;;;;;;25.20;14.05;;;5.70;99.90;;;;;;5136126;28;20059;-77
2023/12/06 06:53:30;;;;;;;28.45;13.35;;;5.70;99.90;;;;;;5136040;28;20043;-77
2023/12/06 06:55:56;;;;;;;28.35;14.40;;;5.70;99.90;;;;;;5136185;27;20062;-77
2023/12/06 06:58:21;;;;;;;22.40;13.85;;;5.80;99.90;;;;;;5139610;27;20019;-77
2023/12/06 07:00:47;;;;;;;22.23;13.82;;;5.80;99.90;;;;;;5122145;27;20050;-77
2023/12/06 07:03:13;;;;;;;26.33;14.80;;;5.80;99.90;;;;;;5140823;27;20024;-77
2023/12/06 07:05:39;;;;;;;26.55;14.18;;;5.80;99.90;;;;;;5121618;27;20046;-78
2023/12/06 07:08:05;;;;;;;23.45;13.05;;;5.80;99.90;;;;;;5140029;27;20024;-77
2023/12/06 07:10:34;;;;;;;18.65;11.75;;;5.90;99.90;;;;;;5140053;27;20768;-77
2023/12/06 07:13:00;;;;;;;20.45;10.38;;;5.90;99.90;;;;;;5140271;27;20053;-78
2023/12/06 07:15:26;;;;;;;19.13;12.15;;;5.90;99.90;;;;;;5139524;27;20068;-77
2023/12/06 07:17:51;;;;;;;20.65;12.52;;;5.80;99.90;;;;;;5139860;27;20059;-77
2023/12/06 07:20:17;;;;;;;26.38;12.38;;;5.80;99.90;;;;;;5133278;27;20467;-76
2023/12/06 07:22:43;;;;;;;21.65;14.15;;;5.90;99.90;;;;;;5139640;27;20023;-77
2023/12/06 07:25:09;;;;;;;22.70;13.15;;;5.80;99.90;;;;;;5121295;27;20059;-77
2023/12/06 07:27:34;;;;;;;19.38;11.25;;;5.80;99.90;;;;;;5120198;27;20399;-77
2023/12/06 07:30:00;;;;;;;22.20;10.07;;;5.80;99.90;;;;;;5121098;27;20023;-78
2023/12/06 07:32:26;;;;;;;20.58;11.45;;;5.80;99.90;;;;;;5121315;27;20115;-77
2023/12/06 07:34:51;;;;;;;18.95;11.45;;;5.80;99.90;;;;;;5139700;27;20034;-77
2023/12/06 07:37:17;;;;;;;22.20;11.07;;;5.90;99.90;;;;;;5139375;27;20057;-77
2023/12/06 07:39:42;;;;;;;20.60;11.63;;;5.90;99.90;;;;;;5139395;27;20031;-76
2023/12/06 07:42:09;;;;;;;23.33;13.77;;;5.90;99.90;;;;;;5139384;27;20023;-77
2023/12/06 07:44:35;;;;;;;20.55;12.20;;;5.90;99.90;;;;;;5119843;27;20499;-76
2023/12/06 07:47:00;;;;;;;21.75;12.00;;;5.90;99.90;;;;;;5139417;27;20039;-77
2023/12/06 07:49:26;;;;;;;28.15;13.48;;;5.90;99.90;;;;;;5139356;27;20031;-77
2023/12/06 07:51:52;;;;;;;22.08;13.38;;;5.90;99.90;;;;;;5139198;27;20200;-77
2023/12/06 07:54:19;;;;;;;22.30;13.80;;;6.00;99.90;;;;;;5139209;27;20583;-78
2023/12/06 07:56:44;;;;;;;23.00;13.20;;;6.00;99.90;;;;;;5139358;27;20019;-77
2023/12/06 07:59:10;;;;;;;23.15;13.45;;;6.00;99.90;;;;;;5138993;27;20015;-77
2023/12/06 08:01:36;;;;;;;22.60;12.68;;;6.10;99.90;;;;;;5139107;27;20057;-77
2023/12/06 08:04:02;;;;;;;20.83;12.23;;;6.10;99.90;;;;;;5139208;27;20098;-76
2023/12/06 08:06:28;;;;;;;18.38;12.93;;;6.20;99.90;;;;;;5138963;27;20107;-76
2023/12/06 08:08:53;;;;;;;21.25;11.75;;;6.20;99.90;;;;;;5137389;27;20123;-77
2023/12/06 08:11:19;;;;;;;19.60;12.05;;;6.20;99.90;;;;;;5138847;27;20019;-77
2023/12/06 08:13:46;;;;;;;19.17;12.63;;;6.30;99.90;;;;;;5138509;27;20023;-76
2023/12/06 08:16:12;;;;;;;21.83;12.55;;;6.30;99.90;;;;;;5138963;27;20700;-77
2023/12/06 08:18:38;;;;;;;18.88;11.45;;;6.40;99.90;;;;;;5118439;27;20051;-77
2023/12/06 08:21:07;;;;;;;19.55;11.63;;;6.40;99.90;;;;;;5113733;27;20114;-77
2023/12/06 08:23:36;;;;;;;16.33;10.35;;;6.30;99.90;;;;;;5119781;27;20443;-77
2023/12/06 08:26:04;;;;;;;15.43;10.98;;;6.30;99.90;;;;;;5138785;27;20055;-76
2023/12/06 08:28:32;;;;;;;15.20;10.65;;;6.40;99.90;;;;;;5138468;27;20102;-77
2023/12/06 08:30:57;;;;;;;15.50;10.43;;;6.40;99.90;;;;;;5138454;27;20023;-77
2023/12/06 08:33:23;;;;;;;19.83;11.07;;;6.40;99.90;;;;;;5119581;27;20117;-76
2023/12/06 08:35:51;;;;;;;17.88;11.23;;;6.50;99.90;;;;;;5119919;27;20054;-78
2023/12/06 08:38:17;;;;;;;20.95;11.95;;;6.50;99.90;;;;;;5119758;27;20019;-78
2023/12/06 08:40:43;;;;;;;18.65;12.48;;;6.60;99.90;;;;;;5137147;27;20038;-78
2023/12/06 08:43:08;;;;;;;16.20;10.90;;;6.50;99.90;;;;;;5127003;27;20034;-77
2023/12/06 08:45:34;;;;;;;18.08;11.60;;;6.70;99.90;;;;;;5126503;27;20437;-78
2023/12/06 08:48:00;;;;;;;16.80;11.38;;;6.80;99.90;;;;;;5109269;27;20400;-78
2023/12/06 08:50:25;;;;;;;18.52;11.07;;;6.90;99.90;;;;;;5129240;27;20038;-79
2023/12/06 08:52:51;;;;;;;18.05;11.70;;;6.90;99.90;;;;;;5132603;27;20019;-80
2023/12/06 08:55:17;;;;;;;16.27;11.20;;;6.80;99.90;;;;;;5098221;28;20403;-80
2023/12/06 08:57:43;;;;;;;14.43;10.05;;;6.90;99.90;;;;;;5104909;27;20034;-79
2023/12/06 09:00:11;;;;;;;19.10;10.73;;;7.00;99.90;;;;;;5115992;27;20034;-79
2023/12/06 09:02:42;;;;;;;14.27;10.35;;;7.20;99.90;;;;;;5112926;28;20399;-79
2023/12/06 09:05:10;;;;;;;13.85;10.13;;;7.20;99.90;;;;;;5130419;27;20025;-79
2023/12/06 09:07:35;;;;;;;15.38;11.23;;;7.00;99.90;;;;;;5131634;27;20058;-80
2023/12/06 09:10:03;;;;;;;20.90;12.23;;;7.10;99.90;;;;;;5130390;27;20557;-79
2023/12/06 09:12:29;;;;;;;19.27;13.25;;;7.00;99.90;;;;;;5132823;27;20047;-81
2023/12/06 09:14:55;;;;;;;16.15;11.05;;;7.00;99.90;;;;;;5125628;27;20058;-81
2023/12/06 09:17:20;;;;;;;15.25;11.70;;;7.00;99.90;;;;;;5120007;27;20035;-81
2023/12/06 09:19:46;;;;;;;18.98;10.32;;;7.00;99.90;;;;;;5104189;27;20052;-77
2023/12/06 09:22:13;;;;;;;19.13;10.90;;;7.00;99.90;;;;;;5103989;28;20027;-78
2023/12/06 09:24:40;;;;;;;14.90;10.40;;;6.90;99.90;;;;;;5114346;27;20043;-78
2023/12/06 09:27:05;;;;;;;16.42;10.82;;;7.10;99.90;;;;;;5112203;27;20312;-77
2023/12/06 09:29:31;;;;;;;13.95;9.85;;;7.00;99.90;;;;;;5117219;27;20035;-77
2023/12/06 09:31:56;;;;;;;16.33;11.20;;;7.00;99.90;;;;;;5121366;27;20425;-77
2023/12/06 09:34:22;;;;;;;15.27;10.98;;;7.00;99.90;;;;;;5128780;27;20027;-78
2023/12/06 09:36:48;;;;;;;19.35;13.57;;;6.90;99.90;;;;;;5136174;27;20023;-81
2023/12/06 09:39:15;;;;;;;17.23;10.27;;;7.00;99.90;;;;;;5112810;28;20116;-80
2023/12/06 09:41:42;;;;;;;15.50;9.70;;;7.10;99.90;;;;;;5132271;27;20026;-80
2023/12/06 09:44:07;;;;;;;15.68;10.82;;;7.20;99.90;;;;;;5136821;27;20027;-79
2023/12/06 09:46:33;;;;;;;15.10;9.68;;;7.10;99.90;;;;;;5137173;27;20026;-80
2023/12/06 09:49:00;;;;;;;15.77;9.57;;;7.10;99.90;;;;;;5137107;27;20039;-78
2023/12/06 09:51:26;;;;;;;20.35;10.15;;;7.00;99.90;;;;;;5136544;27;20022;-79
2023/12/06 09:53:52;;;;;;;12.68;9.95;;;7.10;99.90;;;;;;5118447;27;20054;-80
2023/12/06 09:56:18;;;;;;;12.82;9.23;;;7.20;99.90;;;;;;5137121;27;20027;-80
2023/12/06 09:58:45;;;;;;;15.07;9.68;;;7.20;99.90;;;;;;5118662;27;20051;-80
2023/12/06 10:01:11;;;;;;;11.73;9.43;;;7.20;99.90;;;;;;5136868;27;20076;-80
2023/12/06 10:03:38;;;;;;;10.85;7.97;;;7.20;99.90;;;;;;5136803;27;20027;-80
2023/12/06 10:06:04;;;;;;;19.10;11.80;;;7.20;99.90;;;;;;5136981;27;20028;-79
2023/12/06 10:08:35;;;;;;;15.52;9.35;;;7.30;99.90;;;;;;5137011;27;20015;-80
2023/12/06 10:11:08;;;;;;;11.77;7.63;;;7.30;99.90;;;;;;5136616;27;20453;-79
2023/12/06 10:13:35;;;;;;;14.93;8.70;;;7.30;99.90;;;;;;5123888;27;20019;-79
2023/12/06 10:16:01;;;;;;;13.75;9.05;;;7.30;99.90;;;;;;5136401;27;20027;-79
2023/12/06 10:18:27;;;;;;;12.15;8.50;;;7.40;99.90;;;;;;5136896;27;20015;-81
2023/12/06 10:20:55;;;;;;;10.63;8.88;;;7.40;99.90;;;;;;5130753;27;20414;-82
2023/12/06 10:23:21;;;;;;;11.95;9.13;;;7.50;99.90;;;;;;5110917;28;20032;-81
2023/12/06 10:25:47;;;;;;;11.68;8.73;;;7.50;99.90;;;;;;5130974;27;20011;-84
2023/12/06 10:28:14;;;;;;;16.63;10.00;;;7.60;99.90;;;;;;5123149;27;20493;-78
2023/12/06 10:30:40;;;;;;;12.23;9.10;;;7.70;99.90;;;;;;5136209;27;20034;-80
2023/12/06 10:33:07;;;;;;;92.32;50.35;;;7.70;99.90;;;;;;5135025;27;20114;-81
2023/12/06 10:35:34;;;;;;;26.10;15.80;;;7.70;99.90;;;;;;5136402;28;20502;-84
2023/12/06 10:38:02;;;;;;;25.00;14.13;;;7.60;99.90;;;;;;5135977;28;20034;-78
2023/12/06 10:40:28;;;;;;;12.68;9.27;;;7.60;99.90;;;;;;5126251;28;20037;-80
2023/12/06 10:43:01;;;;;;;15.07;10.32;;;7.60;99.90;;;;;;5136039;28;20019;-78
2023/12/06 10:45:28;;;;;;;18.25;11.95;;;7.50;99.90;;;;;;5136398;28;20019;-79
2023/12/06 10:47:55;;;;;;;15.70;11.00;;;7.50;99.90;;;;;;5136188;28;20114;-80
2023/12/06 10:50:22;;;;;;;24.50;15.48;;;7.50;99.90;;;;;;5136375;28;20041;-81
2023/12/06 10:52:48;;;;;;;31.85;19.77;;;7.50;99.90;;;;;;5135728;28;20054;-78
2023/12/06 10:55:17;;;;;;;16.67;11.20;;;7.60;99.90;;;;;;5117849;28;20035;-77
2023/12/06 10:57:44;;;;;;;17.15;9.65;;;7.60;99.90;;;;;;5128642;28;20023;-78
2023/12/06 11:00:11;;;;;;;13.82;9.38;;;7.50;99.90;;;;;;5130643;28;20034;-76
2023/12/06 11:02:36;;;;;;;16.85;10.18;;;7.50;99.90;;;;;;5130488;28;20027;-75
2023/12/06 11:05:05;;;;;;;16.20;9.32;;;7.50;99.90;;;;;;5116526;28;20483;-77
2023/12/06 11:08:08;;;;;;;15.23;9.75;;;7.50;99.90;;;;;;5115321;28;20023;-77
2023/12/06 11:10:34;;;;;;;16.67;9.63;;;7.50;99.90;;;;;;5127045;28;20054;-77
2023/12/06 11:13:11;;;;;;;15.45;8.27;;;7.60;99.90;;;;;;5129297;28;20046;-76
2023/12/06 11:15:58;;;;;;;13.32;8.63;;;7.70;99.90;;;;;;5127626;28;20544;-76
2023/12/06 11:18:28;;;;;;;15.15;8.88;;;7.70;99.90;;;;;;5109332;28;20542;-76
2023/12/06 11:20:54;;;;;;;12.40;8.57;;;7.80;99.90;;;;;;5125171;28;20027;-76
2023/12/06 11:23:21;;;;;;;13.23;9.45;;;7.80;99.90;;;;;;5110958;28;20076;-76
2023/12/06 11:25:49;;;;;;;28.98;23.20;;;7.80;99.90;;;;;;5129081;28;20485;-76
2023/12/06 11:28:20;;;;;;;343.33;138.07;;;7.90;99.90;;;;;;5124048;28;20016;-77
2023/12/06 11:30:55;;;;;;;;;;;7.90;99.90;;;;;;5128318;28;20709;-75
2023/12/06 11:33:20;;;;;;;18.67;10.77;;;7.60;99.90;;;;;;5127650;28;19904;-76
2023/12/06 11:35:55;;;;;;;22.73;12.45;;;7.80;99.90;;;;;;5127674;28;20024;-75
2023/12/06 11:38:34;;;;;;;17.30;8.23;;;7.80;99.90;;;;;;5113054;28;20115;-75
2023/12/06 11:41:01;;;;;;;15.00;9.35;;;7.80;99.90;;;;;;5129529;28;20027;-75
2023/12/06 11:43:37;;;;;;;11.30;7.95;;;7.90;99.90;;;;;;5129869;27;20015;-75
2023/12/06 11:46:14;;;;;;;10.40;7.32;;;7.90;99.90;;;;;;5132117;27;20035;-76
2023/12/06 11:48:43;;;;;;;11.45;7.43;;;7.90;99.90;;;;;;5131173;27;20505;-76
2023/12/06 11:51:20;;;;;;;10.40;6.65;;;8.00;99.90;;;;;;5126703;27;20016;-76
2023/12/06 11:53:46;;;;;;;10.60;7.20;;;7.90;99.90;;;;;;5130798;27;20051;-77
2023/12/06 11:56:11;;;;;;;15.10;8.00;;;7.90;99.90;;;;;;5127826;27;20110;-76
2023/12/06 11:58:38;;;;;;;13.38;7.05;;;7.90;99.90;;;;;;5130091;27;20118;-77
2023/12/06 12:01:04;;;;;;;13.43;7.65;;;8.10;99.90;;;;;;5133191;27;20015;-77
2023/12/06 12:03:33;;;;;;;15.00;8.10;;;8.10;99.90;;;;;;5129079;27;20019;-77
2023/12/06 12:05:59;;;;;;;10.40;6.63;;;8.10;99.90;;;;;;5111579;27;20024;-77
2023/12/06 12:08:28;;;;;;;11.38;6.53;;;8.20;99.90;;;;;;5131032;27;20027;-78
2023/12/06 12:10:54;;;;;;;9.63;6.47;;;8.30;99.90;;;;;;5125645;27;20024;-78
2023/12/06 12:13:23;;;;;;;12.82;6.97;;;8.20;99.90;;;;;;5112805;27;20031;-77
2023/12/06 12:15:49;;;;;;;15.50;6.22;;;8.10;99.90;;;;;;5132499;27;20027;-78
2023/12/06 12:18:15;;;;;;;11.45;7.30;;;8.10;99.90;;;;;;5129197;27;20027;-77
2023/12/06 12:20:41;;;;;;;13.65;6.00;;;8.30;99.90;;;;;;5130780;27;20597;-77
2023/12/06 12:23:07;;;;;;;14.02;7.50;;;8.40;99.90;;;;;;5130473;27;20022;-77
2023/12/06 12:25:33;;;;;;;10.00;6.00;;;8.50;99.90;;;;;;5114868;27;20122;-76
2023/12/06 12:27:58;;;;;;;13.18;7.50;;;8.60;99.90;;;;;;5129305;27;20376;-78
2023/12/06 12:30:24;;;;;;;13.02;6.93;;;8.60;99.90;;;;;;5114552;27;20069;-77
2023/12/06 12:32:52;;;;;;;10.82;7.10;;;8.60;99.90;;;;;;5128969;27;20111;-77
2023/12/06 12:35:19;;;;;;;39.28;15.20;;;8.50;99.90;;;;;;5114765;27;20371;-77
2023/12/06 12:37:46;;;;;;;14.38;6.82;;;8.70;99.90;;;;;;5127593;27;20027;-77